Airfield :
LOGIN :

Register | Disclaimer

   EN    FR    IT 

 










Legend :    VFR   Marginal VFR   IFR   Intensive IFR   Very Intensive IFR
Visi :
Ceiling :
>= 8 km
>= 3000ft
5 to 8 km
1000 to 3000 ft
1500m to 5 km
500 to 1000 ft
800 to 1500m
200 to 500 ft
< 800m
< 200 ft
Symbols :   Thunderstorms  Fog  Heavy snow  Heavy precipitations  Wind > 20 kt
SIGMETs :     Misc.  Thunderstorms  Icing  Turbulence  Mountain Waves  Volcanic Ashes






- Airport Elevation : 319 ft


EIME - Casement Air Base

CURRENT METAR :
  • 290600Z 06011KT 020V080 9999 FEW025 BKN040 04/M05 Q1045

EXPIRED METARs :
  • 290500Z 06012G23KT 030V090 9999 FEW022 BKN050 04/M05 Q1044
  • 290400Z 06013KT 9999 FEW020 BKN050 04/M04 Q1044
  • 290300Z 06014G27KT 030V100 9999 FEW018 BKN050 04/M02 Q1044

TAF TAF EIME
Valid from the 29 at 06:00 until the 29 at 15:00 UTC


290500Z 2906/2915 05014KT 9999 FEW020 BKN045
TEMPO 2906/2914 05015G25KT



MET'MAP, your aeronautical weather chart ! - Copyright ORBIFLY December 2007 - Disclaimer

ORBIFLY MET'MAP TEAM :

Programming & Development : Alexandra Zaïnal
Concept & original design : Baudouin d'Aumeries
Assistance for programming : Marc-Olivier Méhu
Technical & hardware support : Manuel Goepfert

Contact : metmap@orbifly.com




SOURCES & CREDITS :

   NOAA